createdAt,value
2018-12-12T00:00:21.060Z,99111.69
2018-12-12T00:02:31.911Z,99107.40
2018-12-12T00:04:42.815Z,99109.13
2018-12-12T00:06:54.168Z,99106.96
2018-12-12T00:09:05.448Z,99102.27
2018-12-12T00:11:16.301Z,99094.53
2018-12-12T00:13:27.143Z,99091.09
2018-12-12T00:15:38.077Z,99098.26
2018-12-12T00:17:49.653Z,99088.83
2018-12-12T00:20:00.626Z,99085.47
2018-12-12T00:22:11.486Z,99088.91
2018-12-12T00:24:22.389Z,99089.71
2018-12-12T00:26:33.268Z,99087.11
2018-12-12T00:28:44.140Z,99088.83
2018-12-12T00:30:55.005Z,99092.72
2018-12-12T00:33:06.824Z,99088.88
2018-12-12T00:35:17.683Z,99089.77
2018-12-12T00:37:29.400Z,99090.59
2018-12-12T00:39:40.240Z,99091.44
2018-12-12T00:41:51.089Z,99085.47
2018-12-12T00:44:01.946Z,99089.72
2018-12-12T00:46:12.808Z,99088.11
2018-12-12T00:48:23.709Z,99089.88
2018-12-12T00:50:34.574Z,99092.84
2018-12-12T00:52:45.573Z,99092.84
2018-12-12T00:54:56.417Z,99092.48
2018-12-12T00:59:24.850Z,99090.48
2018-12-12T01:01:35.688Z,99087.88
2018-12-12T01:03:46.544Z,99087.84
2018-12-12T01:05:57.378Z,99087.80
2018-12-12T01:08:08.221Z,99092.92
2018-12-12T01:10:19.184Z,99089.56
2018-12-12T01:12:30.040Z,99090.92
2018-12-12T01:14:40.911Z,99089.64
2018-12-12T01:16:51.747Z,99081.55
2018-12-12T01:19:02.692Z,99084.98
2018-12-12T01:21:13.550Z,99082.83
2018-12-12T01:23:24.727Z,99086.23
2018-12-12T01:25:35.725Z,99083.70
2018-12-12T01:27:46.579Z,99087.67
2018-12-12T01:29:57.401Z,99089.43
2018-12-12T01:32:08.259Z,99088.98
2018-12-12T01:34:19.131Z,99096.69
2018-12-12T01:36:29.973Z,99087.75
2018-12-12T01:38:40.828Z,99083.42
2018-12-12T01:40:54.693Z,99087.27
2018-12-12T01:43:05.553Z,99084.67
2018-12-12T01:45:16.384Z,99084.55
2018-12-12T01:47:27.251Z,99085.34
2018-12-12T01:49:38.101Z,99090.44
2018-12-12T01:51:48.944Z,99086.98
2018-12-12T01:53:59.757Z,99087.35
2018-12-12T01:56:10.612Z,99088.20
2018-12-12T01:58:21.425Z,99087.31
2018-12-12T02:00:32.276Z,99088.23
2018-12-12T02:02:43.092Z,99095.97
2018-12-12T02:04:54.063Z,99096.81
2018-12-12T02:07:04.906Z,99098.50
2018-12-12T02:09:15.772Z,99095.86
2018-12-12T02:11:26.633Z,99103.11
2018-12-12T02:13:37.459Z,99095.41
2018-12-12T02:15:48.345Z,99098.02
2018-12-12T02:17:59.184Z,99097.98
2018-12-12T02:20:10.021Z,99095.86
2018-12-12T02:22:20.881Z,99096.38
2018-12-12T02:24:31.709Z,99090.00
2018-12-12T02:26:42.536Z,99088.72
2018-12-12T02:28:53.367Z,99084.03
2018-12-12T02:31:04.263Z,99085.39
2018-12-12T02:33:15.219Z,99086.19
2018-12-12T02:35:26.137Z,99085.70
2018-12-12T02:37:37.114Z,99090.36
2018-12-12T02:39:47.933Z,99087.83
2018-12-12T02:41:58.992Z,99102.94
2018-12-12T02:44:09.820Z,99101.81
2018-12-12T02:46:20.659Z,99101.85
2018-12-12T02:48:31.517Z,99090.34
2018-12-12T02:50:42.547Z,99084.81
2018-12-12T02:52:53.533Z,99087.38
2018-12-12T02:55:04.382Z,99083.57
2018-12-12T02:57:15.197Z,99080.64
2018-12-12T02:59:26.048Z,99077.23
2018-12-12T03:01:36.880Z,99080.20
2018-12-12T03:03:48.642Z,99076.36
2018-12-12T03:05:59.515Z,99083.13
2018-12-12T03:08:10.346Z,99086.46
2018-12-12T03:10:21.293Z,99085.58
2018-12-12T03:12:32.154Z,99082.98
2018-12-12T03:14:42.988Z,99078.21
2018-12-12T03:16:53.818Z,99084.55
2018-12-12T03:19:04.734Z,99078.90
2018-12-12T03:21:15.684Z,99083.27
2018-12-12T03:23:26.645Z,99089.31
2018-12-12T03:25:37.479Z,99086.83
2018-12-12T03:27:48.302Z,99090.27
2018-12-12T03:29:59.138Z,99086.06
2018-12-12T03:32:09.970Z,99087.74
2018-12-12T03:34:20.905Z,99090.67
2018-12-12T03:36:31.743Z,99087.67
2018-12-12T03:38:42.561Z,99085.55
2018-12-12T03:40:53.538Z,99084.67
2018-12-12T03:43:04.529Z,99086.83
2018-12-12T03:45:15.339Z,99083.38
2018-12-12T03:47:26.198Z,99080.49
2018-12-12T03:49:37.032Z,99081.81
2018-12-12T03:51:48.920Z,99072.51
2018-12-12T03:53:59.778Z,99081.59
2018-12-12T03:56:10.620Z,99075.62
2018-12-12T03:58:21.441Z,99082.84
2018-12-12T04:00:32.272Z,99079.32
2018-12-12T04:02:43.230Z,99078.88
2018-12-12T04:04:54.145Z,99084.45
2018-12-12T04:07:04.997Z,99077.78
2018-12-12T04:09:15.832Z,99077.41
2018-12-12T04:11:26.735Z,99073.16
2018-12-12T04:13:37.603Z,99078.25
2018-12-12T04:15:48.441Z,99079.47
2018-12-12T04:17:59.301Z,99078.63
2018-12-12T04:20:10.147Z,99084.59
2018-12-12T04:22:21.313Z,99078.19
2018-12-12T04:24:32.371Z,99079.94
2018-12-12T04:26:43.288Z,99077.45
2018-12-12T04:28:54.138Z,99083.89
2018-12-12T04:31:05.023Z,99084.77
2018-12-12T04:33:15.896Z,99083.52
2018-12-12T04:35:26.710Z,99089.16
2018-12-12T04:37:37.553Z,99080.28
2018-12-12T04:39:48.398Z,99082.47
2018-12-12T04:41:59.349Z,99085.00
2018-12-12T04:44:10.196Z,99083.72
2018-12-12T04:46:21.039Z,99087.13
2018-12-12T04:48:31.998Z,99083.69
2018-12-12T04:50:42.809Z,99088.75
2018-12-12T04:52:53.625Z,99088.61
2018-12-12T04:55:04.602Z,99091.11
2018-12-12T04:57:15.488Z,99088.14
2018-12-12T04:59:26.457Z,99092.39
2018-12-12T05:01:37.408Z,99085.91
2018-12-12T05:03:48.404Z,99087.20
2018-12-12T05:05:59.235Z,99085.55
2018-12-12T05:08:10.077Z,99091.11
2018-12-12T05:10:20.924Z,99090.23
2018-12-12T05:12:31.742Z,99091.52
2018-12-12T05:14:42.702Z,99088.47
2018-12-12T05:16:53.663Z,99097.92
2018-12-12T05:19:04.544Z,99093.67
2018-12-12T05:21:15.406Z,99094.98
2018-12-12T05:23:26.260Z,99095.39
2018-12-12T05:25:37.125Z,99093.70
2018-12-12T05:27:48.068Z,99090.37
2018-12-12T05:29:58.908Z,99089.52
2018-12-12T05:32:09.736Z,99094.24
2018-12-12T05:34:20.555Z,99089.89
2018-12-12T05:36:31.424Z,99089.45
2018-12-12T05:38:42.249Z,99093.73
2018-12-12T05:40:53.245Z,99086.89
2018-12-12T05:43:04.197Z,99084.40
2018-12-12T05:45:15.089Z,99084.88
2018-12-12T05:47:26.011Z,99087.43
2018-12-12T05:49:36.837Z,99085.71
2018-12-12T05:51:47.722Z,99083.62
2018-12-12T05:53:58.567Z,99085.78
2018-12-12T05:56:14.088Z,99092.16
2018-12-12T05:58:22.417Z,99090.84
2018-12-12T06:00:33.289Z,99085.68
2018-12-12T06:02:44.138Z,99091.17
2018-12-12T06:04:54.996Z,99087.30
2018-12-12T06:07:05.870Z,99092.83
2018-12-12T06:09:16.696Z,99093.27
2018-12-12T06:11:27.516Z,99092.42
2018-12-12T06:13:38.353Z,99094.55
2018-12-12T06:15:49.191Z,99094.95
2018-12-12T06:18:00.049Z,99096.27
2018-12-12T06:20:11.037Z,99098.36
2018-12-12T06:22:22.336Z,99093.23
2018-12-12T06:24:33.517Z,99086.83
2018-12-12T06:26:44.385Z,99091.52
2018-12-12T06:28:55.253Z,99093.97
2018-12-12T06:31:06.112Z,99099.53
2018-12-12T06:33:16.963Z,99093.53
2018-12-12T06:35:27.797Z,99093.46
2018-12-12T06:37:38.662Z,99100.23
2018-12-12T06:39:49.501Z,99093.42
2018-12-12T06:42:00.345Z,99096.47
2018-12-12T06:44:11.238Z,99096.53
2018-12-12T06:46:22.188Z,99093.16
2018-12-12T06:48:33.053Z,99090.20
2018-12-12T06:50:43.905Z,99097.88
2018-12-12T06:52:54.776Z,99095.73
2018-12-12T06:55:05.744Z,99099.17
2018-12-12T06:57:16.568Z,99100.48
2018-12-12T06:59:27.433Z,99102.61
2018-12-12T07:01:38.508Z,99106.05
2018-12-12T07:03:49.384Z,99107.33
2018-12-12T07:06:00.245Z,99104.30
2018-12-12T07:08:11.084Z,99107.63
2018-12-12T07:10:21.937Z,99106.72
2018-12-12T07:12:32.787Z,99102.84
2018-12-12T07:14:43.640Z,99106.17
2018-12-12T07:16:54.477Z,99106.25
2018-12-12T07:19:05.333Z,99107.56
2018-12-12T07:21:16.224Z,99114.41
2018-12-12T07:23:27.206Z,99112.28
2018-12-12T07:25:38.083Z,99108.00
2018-12-12T07:27:48.949Z,99109.32
2018-12-12T07:29:59.840Z,99110.20
2018-12-12T07:32:10.665Z,99108.95
2018-12-12T07:34:21.656Z,99104.66
2018-12-12T07:36:32.518Z,99109.32
2018-12-12T07:38:43.407Z,99113.53
2018-12-12T07:40:54.279Z,99119.09
2018-12-12T07:43:05.158Z,99111.00
2018-12-12T07:45:16.679Z,99110.97
2018-12-12T07:47:27.703Z,99111.41
2018-12-12T07:49:38.674Z,99111.81
2018-12-12T07:51:49.528Z,99112.69
2018-12-12T07:54:00.358Z,99109.17
2018-12-12T07:56:11.261Z,99110.90
2018-12-12T07:58:22.114Z,99109.17
2018-12-12T08:00:33.008Z,99108.73
2018-12-12T08:02:43.883Z,99107.53
2018-12-12T08:04:54.733Z,99104.48
2018-12-12T08:07:05.610Z,99106.17
2018-12-12T08:09:16.561Z,99103.20
2018-12-12T08:11:27.441Z,99108.33
2018-12-12T08:13:38.268Z,99106.14
2018-12-12T08:15:49.137Z,99104.86
2018-12-12T08:18:00.025Z,99109.47
2018-12-12T08:20:10.848Z,99109.83
2018-12-12T08:22:21.688Z,99111.45
2018-12-12T08:24:32.525Z,99109.28
2018-12-12T08:26:43.417Z,99107.52
2018-12-12T08:28:54.263Z,99107.80
2018-12-12T08:31:05.104Z,99111.57
2018-12-12T08:33:15.961Z,99111.61
2018-12-12T08:35:26.798Z,99116.34
2018-12-12T08:37:37.653Z,99114.61
2018-12-12T08:39:48.490Z,99120.23
2018-12-12T08:41:59.339Z,99121.47
2018-12-12T08:44:10.204Z,99120.19
2018-12-12T08:46:21.045Z,99121.44
2018-12-12T08:48:31.912Z,99129.57
2018-12-12T08:50:42.798Z,99119.34
2018-12-12T08:52:53.608Z,99133.06
2018-12-12T08:55:04.604Z,99131.33
2018-12-12T08:57:15.681Z,99133.90
2018-12-12T08:59:26.696Z,99135.98
2018-12-12T09:01:37.535Z,99139.84
2018-12-12T09:03:48.419Z,99142.00
2018-12-12T09:05:59.296Z,99144.56
2018-12-12T09:08:10.141Z,99145.08
2018-12-12T09:10:20.979Z,99142.08
2018-12-12T09:12:31.826Z,99145.89
2018-12-12T09:14:42.695Z,99148.41
2018-12-12T09:16:53.563Z,99141.67
2018-12-12T09:19:04.527Z,99145.93
2018-12-12T09:21:15.464Z,99144.23
2018-12-12T09:23:26.858Z,99144.20
2018-12-12T09:25:37.865Z,99145.00
2018-12-12T09:27:48.701Z,99145.84
2018-12-12T09:29:59.575Z,99144.89
2018-12-12T09:32:10.399Z,99140.55
2018-12-12T09:34:21.232Z,99144.84
2018-12-12T09:36:32.100Z,99146.13
2018-12-12T09:38:42.966Z,99137.03
2018-12-12T09:40:53.992Z,99136.62
2018-12-12T09:43:04.845Z,99139.52
2018-12-12T09:45:21.526Z,99139.39
2018-12-12T09:47:28.597Z,99137.18
2018-12-12T09:49:39.415Z,99132.35
2018-12-12T09:51:50.299Z,99128.42
2018-12-12T09:54:01.137Z,99126.69
2018-12-12T09:56:12.006Z,99126.30
2018-12-12T09:58:22.862Z,99123.63
2018-12-12T10:00:33.736Z,99127.34
2018-12-12T10:02:44.580Z,99125.04
2018-12-12T10:04:55.455Z,99126.98
2018-12-12T10:07:06.300Z,99126.38
2018-12-12T10:09:17.149Z,99126.72
2018-12-12T10:11:28.023Z,99128.95
2018-12-12T10:13:38.861Z,99127.81
2018-12-12T10:15:49.716Z,99125.63
2018-12-12T10:18:00.571Z,99124.76
2018-12-12T10:20:11.407Z,99124.45
2018-12-12T10:22:22.237Z,99123.13
2018-12-12T10:24:33.290Z,99124.40
2018-12-12T10:26:44.925Z,99120.89
2018-12-12T10:28:56.517Z,99114.47
2018-12-12T10:31:07.425Z,99117.84
2018-12-12T10:33:18.260Z,99109.57
2018-12-12T10:35:35.996Z,99104.34
2018-12-12T10:37:46.845Z,99107.30
2018-12-12T10:39:57.712Z,99103.44
2018-12-12T10:42:08.609Z,99104.17
2018-12-12T10:44:19.471Z,99105.66
2018-12-12T10:46:30.371Z,99097.98
2018-12-12T10:48:41.254Z,99094.09
2018-12-12T10:50:52.206Z,99089.55
2018-12-12T10:53:03.039Z,99091.28
2018-12-12T10:55:13.939Z,99093.13
2018-12-12T10:57:24.869Z,99085.09
2018-12-12T10:59:35.736Z,99082.73
2018-12-12T11:01:46.986Z,99081.34
2018-12-12T11:03:57.847Z,99079.66
2018-12-12T11:06:08.983Z,99078.54
2018-12-12T11:08:19.955Z,99072.61
2018-12-12T11:10:30.870Z,99075.23
2018-12-12T11:12:41.742Z,99073.16
2018-12-12T11:14:52.617Z,99065.06
2018-12-12T11:17:03.468Z,99064.67
2018-12-12T11:19:14.340Z,99065.41
2018-12-12T11:21:25.184Z,99070.88
2018-12-12T11:23:36.055Z,99058.02
2018-12-12T11:25:46.936Z,99063.05
2018-12-12T11:27:57.798Z,99062.28
2018-12-12T11:30:08.855Z,99065.53
2018-12-12T11:32:19.697Z,99063.91
2018-12-12T11:34:30.544Z,99059.98
2018-12-12T11:36:41.412Z,99052.82
2018-12-12T11:38:52.282Z,99055.95
2018-12-12T11:41:03.277Z,99056.86
2018-12-12T11:43:14.561Z,99057.74
2018-12-12T11:45:25.406Z,99049.14
2018-12-12T11:47:36.259Z,99046.73
2018-12-12T11:49:47.103Z,99048.13
2018-12-12T11:51:58.221Z,99046.39
2018-12-12T11:54:09.081Z,99038.63
2018-12-12T11:56:19.920Z,99034.34
2018-12-12T11:58:30.807Z,99026.56
2018-12-12T12:00:41.649Z,99028.02
2018-12-12T12:02:52.529Z,99025.05
2018-12-12T12:05:04.595Z,99023.83
2018-12-12T12:07:15.468Z,99020.25
2018-12-12T12:09:26.322Z,99014.47
2018-12-12T12:11:37.162Z,99007.16
2018-12-12T12:13:48.048Z,99008.09
2018-12-12T12:15:58.889Z,99010.06
2018-12-12T12:18:09.777Z,99010.33
2018-12-12T12:20:20.625Z,99007.69
2018-12-12T12:22:31.628Z,99002.86
2018-12-12T12:24:42.523Z,99013.38
2018-12-12T12:26:53.382Z,99007.71
2018-12-12T12:29:04.721Z,99004.74
2018-12-12T12:31:16.886Z,99002.56
2018-12-12T12:33:27.791Z,99006.49
2018-12-12T12:35:38.694Z,99001.79
2018-12-12T12:37:49.610Z,98999.28
2018-12-12T12:40:00.482Z,98996.30
2018-12-12T12:42:11.381Z,98991.66
2018-12-12T12:44:22.262Z,98995.55
2018-12-12T12:46:33.128Z,98994.07
2018-12-12T12:48:43.999Z,98993.56
2018-12-12T12:50:54.864Z,98986.66
2018-12-12T12:53:05.714Z,98990.20
2018-12-12T12:55:16.607Z,98987.13
2018-12-12T12:57:27.536Z,98985.39
2018-12-12T12:59:38.491Z,98982.23
2018-12-12T13:01:49.407Z,98981.84
2018-12-12T13:04:00.242Z,98977.41
2018-12-12T13:06:11.119Z,98983.31
2018-12-12T13:08:22.015Z,98974.52
2018-12-12T13:10:33.132Z,98976.30
2018-12-12T13:12:44.682Z,98967.69
2018-12-12T13:14:55.547Z,98970.73
2018-12-12T13:17:06.395Z,98972.37
2018-12-12T13:19:17.249Z,98968.53
2018-12-12T13:21:28.125Z,98966.08
2018-12-12T13:23:38.949Z,98971.24
2018-12-12T13:25:49.853Z,98969.09
2018-12-12T13:28:00.672Z,98966.20
2018-12-12T13:30:11.607Z,98965.00
2018-12-12T13:32:22.491Z,98970.57
2018-12-12T13:34:33.341Z,98968.86
2018-12-12T13:36:44.232Z,98969.03
2018-12-12T13:38:55.074Z,98966.01
2018-12-12T13:41:05.905Z,98963.01
2018-12-12T13:43:16.813Z,98967.76
2018-12-12T13:45:27.688Z,98955.34
2018-12-12T13:47:38.605Z,98956.23
2018-12-12T13:49:49.467Z,98959.58
2018-12-12T13:52:00.312Z,98961.39
2018-12-12T13:54:11.216Z,98955.97
2018-12-12T13:56:22.108Z,98954.26
2018-12-12T13:58:32.958Z,98956.03
2018-12-12T14:00:43.825Z,98959.91
2018-12-12T14:02:54.705Z,98958.28
2018-12-12T14:05:05.699Z,98959.63
2018-12-12T14:07:16.540Z,98956.40
2018-12-12T14:09:27.392Z,98959.88
2018-12-12T14:11:38.280Z,98955.26
2018-12-12T14:13:49.152Z,98953.47
2018-12-12T14:16:00.033Z,98952.18
2018-12-12T14:18:10.921Z,98955.52
2018-12-12T14:20:21.777Z,98953.06
2018-12-12T14:22:32.632Z,98950.16
2018-12-12T14:24:43.490Z,98950.56
2018-12-12T14:26:54.320Z,98951.50
2018-12-12T14:29:05.185Z,98950.21
2018-12-12T14:31:16.081Z,98947.26
2018-12-12T14:33:26.917Z,98945.97
2018-12-12T14:35:37.802Z,98944.75
2018-12-12T14:37:48.637Z,98941.67
2018-12-12T14:39:59.529Z,98940.45
2018-12-12T14:42:11.149Z,98943.42
2018-12-12T14:44:22.004Z,98939.99
2018-12-12T14:46:32.880Z,98939.66
2018-12-12T14:48:43.733Z,98946.94
2018-12-12T14:50:54.634Z,98948.66
2018-12-12T14:53:05.588Z,98943.91
2018-12-12T14:55:16.445Z,98945.21
2018-12-12T14:57:27.320Z,98947.38
2018-12-12T14:59:38.179Z,98945.58
2018-12-12T15:01:49.057Z,98945.21
2018-12-12T15:03:59.889Z,98943.52
2018-12-12T15:06:10.838Z,98943.86
2018-12-12T15:08:21.729Z,98940.23
2018-12-12T15:10:32.585Z,98935.53
2018-12-12T15:12:43.486Z,98943.24
2018-12-12T15:14:54.348Z,98936.33
2018-12-12T15:17:05.225Z,98941.02
2018-12-12T15:19:16.083Z,98939.72
2018-12-12T15:21:26.928Z,98937.16
2018-12-12T15:23:37.813Z,98940.17
2018-12-12T15:25:48.727Z,98936.38
2018-12-12T15:27:59.595Z,98940.63
2018-12-12T15:30:10.689Z,98940.30
2018-12-12T15:32:21.535Z,98935.67
2018-12-12T15:34:32.388Z,98933.98
2018-12-12T15:36:43.252Z,98933.31
2018-12-12T15:38:54.134Z,98937.63
2018-12-12T15:41:05.084Z,98937.19
2018-12-12T15:43:15.949Z,98931.70
2018-12-12T15:45:26.827Z,98931.27
2018-12-12T15:47:37.693Z,98935.06
2018-12-12T15:49:48.562Z,98934.20
2018-12-12T15:51:59.425Z,98935.00
2018-12-12T15:54:10.320Z,98930.26
2018-12-12T15:56:21.198Z,98931.04
2018-12-12T15:58:32.076Z,98928.96
2018-12-12T16:00:43.396Z,98930.58
2018-12-12T16:02:54.676Z,98933.98
2018-12-12T16:05:05.584Z,98935.27
2018-12-12T16:07:16.549Z,98936.12
2018-12-12T16:09:27.433Z,98930.98
2018-12-12T16:11:38.315Z,98930.08
2018-12-12T16:13:49.160Z,98930.14
2018-12-12T16:16:00.057Z,98926.13
2018-12-12T16:18:10.953Z,98922.34
2018-12-12T16:20:21.894Z,98923.98
2018-12-12T16:22:32.867Z,98922.66
2018-12-12T16:24:43.729Z,98926.52
2018-12-12T16:26:54.662Z,98935.06
2018-12-12T16:29:05.752Z,98931.13
2018-12-12T16:31:16.638Z,98926.84
2018-12-12T16:33:27.633Z,98931.09
2018-12-12T16:35:38.560Z,98925.13
2018-12-12T16:37:49.427Z,98926.01
2018-12-12T16:40:00.320Z,98928.18
2018-12-12T16:42:11.212Z,98929.42
2018-12-12T16:44:22.093Z,98921.70
2018-12-12T16:46:32.973Z,98928.84
2018-12-12T16:48:43.918Z,98926.27
2018-12-12T16:50:54.785Z,98925.09
2018-12-12T16:53:05.654Z,98922.49
2018-12-12T16:55:16.522Z,98918.14
2018-12-12T16:57:27.380Z,98921.94
2018-12-12T16:59:38.273Z,98920.50
2018-12-12T17:01:49.145Z,98921.81
2018-12-12T17:04:00.045Z,98918.37
2018-12-12T17:06:10.933Z,98921.31
2018-12-12T17:08:21.833Z,98919.84
2018-12-12T17:10:32.712Z,98918.73
2018-12-12T17:12:43.693Z,98922.02
2018-12-12T17:14:54.577Z,98922.83
2018-12-12T17:17:05.442Z,98913.48
2018-12-12T17:19:16.348Z,98913.10
2018-12-12T17:21:27.197Z,98911.28
2018-12-12T17:23:38.106Z,98907.41
2018-12-12T17:25:49.001Z,98908.25
2018-12-12T17:27:59.930Z,98908.25
2018-12-12T17:30:10.993Z,98908.30
2018-12-12T17:32:21.866Z,98909.16
2018-12-12T17:34:32.758Z,98904.84
2018-12-12T17:36:43.728Z,98908.14
2018-12-12T17:38:54.616Z,98914.25
2018-12-12T17:41:05.517Z,98904.55
2018-12-12T17:43:16.546Z,98901.26
2018-12-12T17:45:27.401Z,98899.41
2018-12-12T17:47:38.254Z,98898.81
2018-12-12T17:49:49.165Z,98898.28
2018-12-12T17:52:00.127Z,98894.54
2018-12-12T17:54:11.063Z,98896.66
2018-12-12T17:56:21.884Z,98902.82
2018-12-12T17:58:32.746Z,98901.33
2018-12-12T18:00:43.678Z,98902.38
2018-12-12T18:02:54.576Z,98896.66
2018-12-12T18:05:05.617Z,98898.08
2018-12-12T18:07:16.502Z,98904.23
2018-12-12T18:09:27.393Z,98903.44
2018-12-12T18:11:38.364Z,98902.38
2018-12-12T18:13:49.229Z,98898.20
2018-12-12T18:16:00.075Z,98904.69
2018-12-12T18:18:11.062Z,98897.60
2018-12-12T18:20:21.952Z,98899.67
2018-12-12T18:22:32.785Z,98897.59
2018-12-12T18:24:43.665Z,98907.38
2018-12-12T18:26:54.665Z,98900.66
2018-12-12T18:29:05.640Z,98905.01
2018-12-12T18:31:16.532Z,98898.69
2018-12-12T18:33:27.394Z,98899.55
2018-12-12T18:35:38.294Z,98906.41
2018-12-12T18:37:49.167Z,98900.44
2018-12-12T18:40:00.056Z,98901.76
2018-12-12T18:42:10.997Z,98892.44
2018-12-12T18:44:28.785Z,98896.45
2018-12-12T18:46:39.661Z,98895.56
2018-12-12T18:48:50.778Z,98892.16
2018-12-12T18:51:01.754Z,98891.27
2018-12-12T18:53:12.620Z,98894.17
2018-12-12T18:55:23.789Z,98896.34
2018-12-12T18:57:34.673Z,98893.33
2018-12-12T18:59:45.601Z,98895.06
2018-12-12T19:01:56.590Z,98891.72
2018-12-12T19:04:07.479Z,98893.34
2018-12-12T19:06:18.354Z,98896.73
2018-12-12T19:08:29.242Z,98890.92
2018-12-12T19:10:40.125Z,98894.82
2018-12-12T19:12:51.037Z,98893.94
2018-12-12T19:15:02.879Z,98893.99
2018-12-12T19:17:13.831Z,98897.34
2018-12-12T19:19:24.758Z,98893.88
2018-12-12T19:21:35.614Z,98894.77
2018-12-12T19:23:46.578Z,98889.20
2018-12-12T19:25:57.462Z,98894.38
2018-12-12T19:28:08.359Z,98894.38
2018-12-12T19:30:19.243Z,98889.26
2018-12-12T19:32:30.130Z,98885.89
2018-12-12T19:34:41.031Z,98888.06
2018-12-12T19:36:51.950Z,98887.27
2018-12-12T19:39:05.625Z,98888.06
2018-12-12T19:41:16.510Z,98888.46
2018-12-12T19:43:27.435Z,98884.12
2018-12-12T19:45:38.330Z,98881.55
2018-12-12T19:47:49.193Z,98882.39
2018-12-12T19:50:00.097Z,98885.36
2018-12-12T19:52:10.988Z,98882.28
2018-12-12T19:54:21.952Z,98880.22
2018-12-12T19:56:32.863Z,98878.53
2018-12-12T19:58:43.793Z,98880.72
2018-12-12T20:00:54.686Z,98884.38
2018-12-12T20:03:05.672Z,98876.58
2018-12-12T20:05:16.550Z,98876.22
2018-12-12T20:07:27.473Z,98873.78
2018-12-12T20:09:38.367Z,98870.51
2018-12-12T20:11:49.365Z,98867.41
2018-12-12T20:14:00.278Z,98872.87
2018-12-12T20:16:11.229Z,98867.75
2018-12-12T20:18:22.121Z,98870.59
2018-12-12T20:20:33.008Z,98866.75
2018-12-12T20:22:43.870Z,98870.61
2018-12-12T20:24:54.771Z,98867.70
2018-12-12T20:27:05.710Z,98861.72
2018-12-12T20:29:16.616Z,98863.39
2018-12-12T20:31:27.513Z,98860.89
2018-12-12T20:33:38.432Z,98859.21
2018-12-12T20:35:49.352Z,98863.02
2018-12-12T20:38:00.287Z,98855.20
2018-12-12T20:40:11.324Z,98858.26
2018-12-12T20:42:22.357Z,98855.41
2018-12-12T20:44:33.290Z,98860.64
2018-12-12T20:46:44.184Z,98855.97
2018-12-12T20:48:55.201Z,98858.58
2018-12-12T20:51:06.114Z,98862.48
2018-12-12T20:53:17.026Z,98858.23
2018-12-12T20:55:27.924Z,98854.48
2018-12-12T20:57:38.867Z,98850.59
2018-12-12T20:59:49.765Z,98855.22
2018-12-12T21:02:00.785Z,98848.75
2018-12-12T21:04:11.665Z,98847.48
2018-12-12T21:06:22.502Z,98849.20
2018-12-12T21:08:33.416Z,98848.13
2018-12-12T21:10:44.326Z,98850.73
2018-12-12T21:12:55.216Z,98849.06
2018-12-12T21:15:07.692Z,98844.42
2018-12-12T21:17:18.598Z,98848.77
2018-12-12T21:19:29.472Z,98840.49
2018-12-12T21:21:40.858Z,98838.36
2018-12-12T21:23:51.933Z,98829.72
2018-12-12T21:26:03.308Z,98834.44
2018-12-12T21:28:14.371Z,98828.59
2018-12-12T21:30:25.274Z,98833.13
2018-12-12T21:32:36.185Z,98834.80
2018-12-12T21:34:47.259Z,98833.97
2018-12-12T21:36:58.163Z,98834.95
2018-12-12T21:39:09.048Z,98841.80
2018-12-12T21:41:19.958Z,98832.58
2018-12-12T21:43:37.802Z,98831.38
2018-12-12T21:45:48.716Z,98828.91
2018-12-12T21:47:59.590Z,98825.55
2018-12-12T21:50:10.741Z,98825.06
2018-12-12T21:52:21.680Z,98822.55
2018-12-12T21:54:32.596Z,98818.00
2018-12-12T21:56:43.541Z,98826.61
2018-12-12T21:58:54.407Z,98824.09
2018-12-12T22:01:05.276Z,98819.81
2018-12-12T22:03:16.143Z,98827.50
2018-12-12T22:05:27.618Z,98825.33
2018-12-12T22:07:38.802Z,98825.64
2018-12-12T22:09:49.872Z,98820.52
2018-12-12T22:12:01.030Z,98815.08
2018-12-12T22:14:13.098Z,98818.13
2018-12-12T22:16:24.358Z,98818.56
2018-12-12T22:18:35.304Z,98813.36
2018-12-12T22:20:46.918Z,98812.12
2018-12-12T22:22:58.061Z,98811.41
2018-12-12T22:25:09.157Z,98814.05
2018-12-12T22:27:20.308Z,98806.38
2018-12-12T22:29:31.212Z,98803.06
2018-12-12T22:31:42.123Z,98797.98
2018-12-12T22:33:53.246Z,98799.70
2018-12-12T22:36:04.224Z,98801.42
2018-12-12T22:38:15.641Z,98799.74
2018-12-12T22:40:26.573Z,98799.66
2018-12-12T22:42:37.469Z,98795.86
2018-12-12T22:44:48.336Z,98797.05
2018-12-12T22:46:59.233Z,98801.34
2018-12-12T22:49:10.137Z,98801.42
2018-12-12T22:51:21.231Z,98797.19
2018-12-12T22:53:32.097Z,98795.50
2018-12-12T22:55:43.021Z,98795.02
2018-12-12T22:57:53.945Z,98795.45
2018-12-12T23:00:06.758Z,98799.30
2018-12-12T23:02:17.623Z,98791.17
2018-12-12T23:04:28.549Z,98792.06
2018-12-12T23:06:39.626Z,98792.05
2018-12-12T23:08:50.521Z,98792.54
2018-12-12T23:11:01.476Z,98795.11
2018-12-12T23:13:12.397Z,98792.54
2018-12-12T23:15:24.791Z,98790.73
2018-12-12T23:17:35.783Z,98792.10
2018-12-12T23:19:46.892Z,98798.15
2018-12-12T23:21:57.758Z,98791.06
2018-12-12T23:24:08.660Z,98794.11
2018-12-12T23:26:19.539Z,98794.98
2018-12-12T23:28:30.419Z,98792.03
2018-12-12T23:30:41.268Z,98784.38
2018-12-12T23:32:52.110Z,98787.46
2018-12-12T23:35:03.433Z,98784.98
2018-12-12T23:37:14.302Z,98782.89
2018-12-12T23:39:25.143Z,98786.00
2018-12-12T23:41:35.990Z,98783.55
2018-12-12T23:43:47.036Z,98777.20
2018-12-12T23:45:57.914Z,98781.03
2018-12-12T23:48:08.906Z,98773.83
2018-12-12T23:50:19.729Z,98775.11
2018-12-12T23:52:30.759Z,98768.38
2018-12-12T23:54:41.717Z,98763.74
2018-12-12T23:56:52.549Z,98763.30
2018-12-12T23:59:03.416Z,98764.62
